ADDS METAR Data INFO
IDs: Format: Raw Decoded Include TAF

Data at: 0801 UTC 23 Jul 2018

KHNB 230756Z AUTO 33004KT 5SM BR SCT004 20/19 A2985 RMK AO2 SLP105 T02000194
KHNB 230711Z AUTO 02005KT 5SM BR SCT004 20/19 A2983 RMK AO2
KHNB 230656Z AUTO 03005KT 6SM BR BKN006 20/19 A2983 RMK AO2 CIG 003V010 SLP099 T02000194
KHNB 230635Z AUTO 35006KT 7SM OVC006 20/20 A2983 RMK AO2 CIG 003V011
KHNB 230556Z AUTO 34005KT 4SM BR BKN003 OVC013 20/20 A2984 RMK AO2 SLP101 60000 T02000200 10211 20200 58003
KHNB 230456Z AUTO 34004KT 5SM BR OVC003 21/21 A2984 RMK AO2 SLP102 T02060206 402440200
KHNB 230452Z AUTO 34004KT 5SM BR OVC003 21/21 A2984 RMK AO2 402440200
KHNB 230422Z AUTO 34004KT 4SM BR 21/21 A2985 RMK AO2
KHNB 230409Z AUTO 33005KT 4SM BR OVC003 21/21 A2985 RMK AO2
KHNB 230356Z AUTO 34004KT 4SM BR OVC004 21/21 A2985 RMK AO2 SLP104 T02060206
KHNB 230324Z AUTO 36003KT 7SM OVC004 21/20 A2985 RMK AO2
KHNB 230316Z AUTO 35003KT 1SM BR OVC004 21/20 A2985 RMK AO2
KHNB 230256Z AUTO 00000KT 7SM BKN004 21/20 A2985 RMK AO2 SLP104 60000 T02060200 51014
KHNB 230249Z AUTO 35003KT 7SM SCT004 21/20 A2984 RMK AO2
KHNB 230156Z AUTO 34004KT 10SM CLR 21/20 A2983 RMK AO2 SLP099 T02060200
KHNB 230056Z AUTO 36004KT 10SM FEW007 21/20 A2982 RMK AO2 RAE04 SLP094 P0000 T02110200
KHNB 230040Z AUTO 34005KT 10SM SCT005 21/20 A2981 RMK AO2 RAE04 P0000
KHNB 230010Z AUTO 32006KT 10SM BKN005 BKN032 OVC048 21/21 A2980 RMK AO2 RAE04 P0000
KHNB 222356Z AUTO 33006KT 10SM -RA SCT008 SCT032 BKN044 21/21 A2980 RMK AO2 TSE2258B00E06 SLP089 P0006 60058 T02110206 10244 20206 51017
KHNB 222335Z AUTO 32008KT 10SM -RA SCT006 BKN080 OVC090 21/21 A2979 RMK AO2 TSE2258B00E06 P0005
KHNB 222312Z AUTO 33007KT 10SM RA FEW065 BKN090 OVC110 21/20 A2979 RMK AO2 LTG DSNT W TSE2258B00E06 P0003
KHNB 222300Z AUTO 31005KT 10SM TSRA FEW065 BKN090 OVC110 21/20 A2979 RMK AO2 LTG DSNT W TSE2258B00 P0001
KHNB 222256Z AUTO 31006KT 10SM TSRA FEW075 BKN100 21/20 A2979 RMK AO2 LTG DSNT W TSB01E25B51 SLP083 P0013 T02060200
KHNB 222231Z AUTO 30008KT 9SM -RA FEW006 BKN070 OVC085 21/21 A2979 RMK AO2 LTG DSNT NW TSB01E25 P0012
KHNB 222201Z AUTO 27005KT 5SM VCTS RA BR FEW006 BKN032 OVC047 21/21 A2980 RMK AO2 LTG DSNT N AND SE AND NW TSB01 P0003
KHNB 222156Z AUTO 29008KT 3SM +RA BR FEW019 BKN032 OVC085 21/21 A2980 RMK AO2 LTG DSNT ALQDS TSB17E52RAB30 SLP085 P0030 T02110206
KHNB 222152Z AUTO 31008KT 2 1/2SM +RA BR FEW015 BKN032 OVC085 21/21 A2979 RMK AO2 LTG DSNT ALQDS TSB17E52RAB30 P0027
KHNB 222119Z AUTO 29010KT 10SM VCTS FEW008 SCT090 23/21 A2977 RMK AO2 LTG DSNT W-N TSB17
KHNB 222013Z AUTO VRB05KT 10SM FEW010 SCT015 24/22 A2975 RMK AO2 LTG DSNT NE AND W
KHNB 221956Z AUTO 32004KT 10SM BKN013 23/22 A2976 RMK AO2 LTG DSNT W-NE RAB1859E34 SLP074 P0009 T02330217
KHNB 221918Z AUTO VRB04KT 7SM RA BKN013 OVC022 22/21 A2977 RMK AO2 RAB1859 P0009
KHNB 221856Z AUTO 33007KT 10SM SCT017 BKN024 OVC035 24/21 A2976 RMK AO2 RAE01 SLP074 P0000 T02440211
KHNB 221839Z AUTO 32008KT 10SM BKN015 BKN021 OVC049 24/21 A2976 RMK AO2 RAE01 P0000
KHNB 221756Z AUTO 36004KT 10SM -RA FEW011 BKN043 OVC065 22/21 A2978 RMK AO2 RAB14 SLP082 P0011 60017 T02220211 10244 20206 57002
KHNB 221656Z AUTO 32004KT 10SM SCT016 BKN022 OVC036 24/21 A2978 RMK AO2 RAB13E37 SLP082 P0000 T02390206
KHNB 221651Z AUTO 33007KT 10SM SCT016 BKN022 OVC039 23/21 A2978 RMK AO2 RAB13E37 P0000
KHNB 221628Z AUTO 31009KT 10SM -RA FEW016 SCT024 OVC039 22/21 A2978 RMK AO2 RAB13 P0000
KHNB 221556Z AUTO 32007G14KT 300V360 10SM BKN016 BKN030 OVC039 23/20 A2979 RMK AO2 RAE1457 SLP083 T02330200 TSNO
KHNB 221553Z AUTO 31008G14KT 10SM SCT014 BKN019 OVC039 23/21 A2979 RMK AO2 RAE1457
KHNB 221539Z AUTO 32007KT 10SM FEW013 BKN033 OVC040 23/21 A2979 RMK AO2 RAE1457
KHNB 221515Z AUTO 32008KT 10SM SCT008 BKN015 OVC039 23/21 A2978 RMK AO2 RAE1457
KHNB 221456Z AUTO 31008KT 10SM -RA BKN008 OVC016 22/21 A2978 RMK AO2 RAB29 CIG 006V010 SLP080 P0006 60006 T02170211 50000
KHNB 221453Z AUTO 30005KT 9SM -RA BKN008 OVC016 21/21 A2978 RMK AO2 RAB29 CIG 006V010 P0006
KHNB 221438Z AUTO 30009KT 6SM +RA BR BKN016 BKN020 OVC028 21/20 A2978 RMK AO2 RAB29 P0003
KHNB 221356Z AUTO 31008KT 10SM OVC014 22/19 A2978 RMK AO2 SLP082 T02170194
KHNB 221256Z AUTO 30008KT 10SM OVC010 21/19 A2978 RMK AO2 SLP080 T02110194
KHNB 221240Z AUTO 30006KT 10SM BKN010 BKN017 OVC032 21/19 A2978 RMK AO2 CIG 008V013
KHNB 221208Z AUTO 30007KT 10SM OVC010 21/19 A2978 RMK AO2
KHNB 221156Z AUTO 31006KT 10SM OVC008 21/19 A2978 RMK AO2 CIG 008V012 SLP079 70003 T02060194 10211 20200 53007
KHNB 221056Z AUTO 30006KT 10SM OVC008 20/19 A2976 RMK AO2 SLP076 T02000194
KHNB 220956Z AUTO 29007KT 10SM BKN008 BKN043 OVC060 20/19 A2975 RMK AO2 SLP071 T02000194
KHNB 220954Z AUTO 29006KT 10SM BKN008 BKN043 OVC060 20/19 A2975 RMK AO2
KHNB 220911Z AUTO 30006KT 10SM FEW008 OVC055 20/19 A2976 RMK AO2
KHNB 220856Z AUTO 29005KT 10SM OVC055 20/19 A2975 RMK AO2 SLP072 T02000194 56010
KHNB 220756Z AUTO 28006KT 9SM SCT065 20/19 A2976 RMK AO2 SLP074 T02000194
KHNB 220656Z AUTO 28006KT 10SM BKN031 21/19 A2977 RMK AO2 SLP078 T02060194
KHNB 220556Z AUTO 28005KT 10SM SCT034 BKN047 OVC055 21/20 A2978 RMK AO2 RAB29E51 SLP082 P0001 60002 T02060200 10244 20206 56007
KHNB 220537Z AUTO 28005KT 8SM -RA FEW019 BKN035 OVC060 21/20 A2978 RMK AO2 RAB29 P0001
KHNB 220513Z AUTO 27004KT 10SM SCT023 BKN028 BKN034 21/19 A2979 RMK AO2
KHNB 220456Z AUTO 26005KT 10SM SCT023 BKN034 21/19 A2979 RMK AO2 SLP084 T02110194 402610189
KHNB 220356Z AUTO 00000KT 10SM BKN025 BKN030 21/20 A2980 RMK AO2 RAE08 SLP086 P0000 T02110200
KHNB 220309Z AUTO 35007KT 10SM BKN021 BKN029 OVC036 22/20 A2981 RMK AO2 RAE08 P0000
KHNB 220256Z AUTO 35005KT 9SM -RA SCT024 BKN032 OVC048 22/20 A2981 RMK AO2 RAB46 SLP088 P0001 60001 T02220200 53006
KHNB 220156Z AUTO 28008KT 10SM FEW034 BKN044 23/20 A2980 RMK AO2 SLP087 T02280200
KHNB 220056Z AUTO 28008KT 10SM SCT035 BKN046 BKN055 23/21 A2979 RMK AO2 LTG DSNT NE AND E SLP084 T02330206
KHNB 212356Z AUTO 29008KT 10SM SCT047 SCT085 24/21 A2979 RMK AO2 SLP083 60001 T02440211 10261 20222 50001
KHNB 212256Z AUTO 30006KT 10SM FEW029 SCT046 OVC055 23/21 A2979 RMK AO2 RAB16E42 SLP087 P0001 T02280211
KHNB 212156Z AUTO 29009KT 10SM FEW039 OVC070 24/21 A2980 RMK AO2 RAB09E29 SLP087 P0000 T02390206
KHNB 212056Z AUTO 29013G20KT 10SM SCT029 BKN040 OVC070 24/20 A2978 RMK AO2 SLP082 T02440200 58002